sensor_id;sensor_type;location;lat;lon;timestamp;P1;durP1;ratioP1;P2;durP2;ratioP2
73331;SDS011;61560;33.718;73.040;2023-03-31T00:00:16;532.60;;;183.77;;
73331;SDS011;61560;33.718;73.040;2023-03-31T00:02:44;535.60;;;183.45;;
73331;SDS011;61560;33.718;73.040;2023-03-31T00:05:11;536.15;;;184.02;;
73331;SDS011;61560;33.718;73.040;2023-03-31T00:07:43;540.13;;;188.23;;
73331;SDS011;61560;33.718;73.040;2023-03-31T00:10:10;539.00;;;187.63;;
73331;SDS011;61560;33.718;73.040;2023-03-31T00:12:37;528.15;;;181.90;;
73331;SDS011;61560;33.718;73.040;2023-03-31T00:15:04;531.63;;;184.07;;
73331;SDS011;61560;33.718;73.040;2023-03-31T00:17:33;530.30;;;182.38;;
73331;SDS011;61560;33.718;73.040;2023-03-31T00:20:00;532.97;;;185.25;;
73331;SDS011;61560;33.718;73.040;2023-03-31T00:22:30;531.30;;;184.50;;
73331;SDS011;61560;33.718;73.040;2023-03-31T00:24:57;525.88;;;181.65;;
73331;SDS011;61560;33.718;73.040;2023-03-31T00:27:24;531.47;;;183.45;;
73331;SDS011;61560;33.718;73.040;2023-03-31T00:29:53;527.60;;;182.68;;
73331;SDS011;61560;33.718;73.040;2023-03-31T00:32:21;523.00;;;180.27;;
73331;SDS011;61560;33.718;73.040;2023-03-31T00:34:50;537.42;;;186.80;;
73331;SDS011;61560;33.718;73.040;2023-03-31T00:37:18;511.05;;;175.23;;
73331;SDS011;61560;33.718;73.040;2023-03-31T00:39:45;502.88;;;171.15;;
73331;SDS011;61560;33.718;73.040;2023-03-31T00:42:13;513.08;;;175.20;;
73331;SDS011;61560;33.718;73.040;2023-03-31T00:50:29;495.77;;;168.80;;
73331;SDS011;61560;33.718;73.040;2023-03-31T00:53:02;510.08;;;173.65;;
73331;SDS011;61560;33.718;73.040;2023-03-31T00:55:39;504.60;;;171.35;;
73331;SDS011;61560;33.718;73.040;2023-03-31T00:58:11;502.15;;;170.48;;
73331;SDS011;61560;33.718;73.040;2023-03-31T01:00:40;501.10;;;170.68;;
73331;SDS011;61560;33.718;73.040;2023-03-31T01:03:08;501.25;;;170.52;;
73331;SDS011;61560;33.718;73.040;2023-03-31T01:05:38;497.65;;;169.75;;
73331;SDS011;61560;33.718;73.040;2023-03-31T01:08:08;487.25;;;165.00;;
73331;SDS011;61560;33.718;73.040;2023-03-31T01:10:36;475.85;;;160.15;;
73331;SDS011;61560;33.718;73.040;2023-03-31T01:13:07;473.73;;;159.82;;
73331;SDS011;61560;33.718;73.040;2023-03-31T01:15:36;474.42;;;159.65;;
73331;SDS011;61560;33.718;73.040;2023-03-31T01:18:05;471.33;;;158.48;;
73331;SDS011;61560;33.718;73.040;2023-03-31T01:23:48;480.50;;;162.20;;
73331;SDS011;61560;33.718;73.040;2023-03-31T01:29:36;470.63;;;158.80;;
73331;SDS011;61560;33.718;73.040;2023-03-31T01:32:26;475.00;;;160.35;;
73331;SDS011;61560;33.718;73.040;2023-03-31T01:35:27;478.67;;;161.05;;
73331;SDS011;61560;33.718;73.040;2023-03-31T01:46:47;478.85;;;161.60;;
73331;SDS011;61560;33.718;73.040;2023-03-31T01:49:30;483.00;;;162.60;;
73331;SDS011;61560;33.718;73.040;2023-03-31T01:52:14;486.77;;;163.68;;
73331;SDS011;61560;33.718;73.040;2023-03-31T01:54:50;490.42;;;165.38;;
73331;SDS011;61560;33.718;73.040;2023-03-31T01:57:52;498.63;;;168.40;;
73331;SDS011;61560;33.718;73.040;2023-03-31T02:00:27;498.88;;;167.55;;
73331;SDS011;61560;33.718;73.040;2023-03-31T02:03:05;501.50;;;170.55;;
73331;SDS011;61560;33.718;73.040;2023-03-31T02:05:55;506.67;;;172.88;;
73331;SDS011;61560;33.718;73.040;2023-03-31T02:08:37;507.85;;;173.02;;
73331;SDS011;61560;33.718;73.040;2023-03-31T02:11:10;510.02;;;173.18;;
73331;SDS011;61560;33.718;73.040;2023-03-31T02:13:38;506.23;;;173.45;;
73331;SDS011;61560;33.718;73.040;2023-03-31T02:16:11;496.73;;;168.38;;
73331;SDS011;61560;33.718;73.040;2023-03-31T02:18:44;505.20;;;171.63;;
73331;SDS011;61560;33.718;73.040;2023-03-31T02:21:14;500.77;;;170.73;;
73331;SDS011;61560;33.718;73.040;2023-03-31T02:23:42;498.70;;;168.43;;
73331;SDS011;61560;33.718;73.040;2023-03-31T02:26:13;506.08;;;171.60;;
73331;SDS011;61560;33.718;73.040;2023-03-31T02:28:45;517.20;;;176.77;;
73331;SDS011;61560;33.718;73.040;2023-03-31T02:34:13;518.13;;;177.50;;
73331;SDS011;61560;33.718;73.040;2023-03-31T02:36:41;521.13;;;178.73;;
73331;SDS011;61560;33.718;73.040;2023-03-31T02:39:17;502.85;;;170.77;;
73331;SDS011;61560;33.718;73.040;2023-03-31T02:41:52;519.88;;;177.90;;
73331;SDS011;61560;33.718;73.040;2023-03-31T02:44:20;521.08;;;177.63;;
73331;SDS011;61560;33.718;73.040;2023-03-31T02:46:47;518.22;;;178.00;;
73331;SDS011;61560;33.718;73.040;2023-03-31T02:49:15;502.88;;;171.02;;
73331;SDS011;61560;33.718;73.040;2023-03-31T02:54:56;509.23;;;174.27;;
73331;SDS011;61560;33.718;73.040;2023-03-31T03:11:26;523.95;;;181.13;;
73331;SDS011;61560;33.718;73.040;2023-03-31T03:16:58;506.58;;;171.30;;
73331;SDS011;61560;33.718;73.040;2023-03-31T03:19:32;508.85;;;172.43;;
73331;SDS011;61560;33.718;73.040;2023-03-31T03:21:59;495.33;;;167.18;;
73331;SDS011;61560;33.718;73.040;2023-03-31T03:24:27;497.77;;;167.25;;
73331;SDS011;61560;33.718;73.040;2023-03-31T03:26:59;490.23;;;163.13;;
73331;SDS011;61560;33.718;73.040;2023-03-31T03:29:26;494.05;;;165.90;;
73331;SDS011;61560;33.718;73.040;2023-03-31T03:31:53;494.10;;;166.68;;
73331;SDS011;61560;33.718;73.040;2023-03-31T03:34:21;501.30;;;169.85;;
73331;SDS011;61560;33.718;73.040;2023-03-31T03:36:50;518.90;;;177.93;;
73331;SDS011;61560;33.718;73.040;2023-03-31T03:39:18;527.03;;;180.98;;
73331;SDS011;61560;33.718;73.040;2023-03-31T03:41:45;526.53;;;182.13;;
73331;SDS011;61560;33.718;73.040;2023-03-31T03:44:13;526.95;;;182.68;;
73331;SDS011;61560;33.718;73.040;2023-03-31T03:46:40;535.20;;;184.07;;
73331;SDS011;61560;33.718;73.040;2023-03-31T03:49:07;532.15;;;182.38;;
73331;SDS011;61560;33.718;73.040;2023-03-31T03:51:34;533.22;;;184.75;;
73331;SDS011;61560;33.718;73.040;2023-03-31T03:54:01;535.05;;;183.75;;
73331;SDS011;61560;33.718;73.040;2023-03-31T03:56:27;534.15;;;184.35;;
73331;SDS011;61560;33.718;73.040;2023-03-31T03:58:54;532.63;;;184.02;;
73331;SDS011;61560;33.718;73.040;2023-03-31T04:01:22;531.28;;;181.55;;
73331;SDS011;61560;33.718;73.040;2023-03-31T04:03:49;518.92;;;177.05;;
73331;SDS011;61560;33.718;73.040;2023-03-31T04:06:16;513.70;;;174.35;;
73331;SDS011;61560;33.718;73.040;2023-03-31T04:08:43;527.63;;;180.93;;
73331;SDS011;61560;33.718;73.040;2023-03-31T04:11:11;501.42;;;169.35;;
73331;SDS011;61560;33.718;73.040;2023-03-31T04:13:43;444.50;;;150.82;;
73331;SDS011;61560;33.718;73.040;2023-03-31T04:16:10;446.25;;;151.10;;
73331;SDS011;61560;33.718;73.040;2023-03-31T04:18:38;443.48;;;150.48;;
73331;SDS011;61560;33.718;73.040;2023-03-31T04:21:09;444.75;;;150.77;;
73331;SDS011;61560;33.718;73.040;2023-03-31T04:23:48;448.85;;;151.73;;
73331;SDS011;61560;33.718;73.040;2023-03-31T04:26:24;447.50;;;151.85;;
73331;SDS011;61560;33.718;73.040;2023-03-31T04:28:57;453.15;;;154.35;;
73331;SDS011;61560;33.718;73.040;2023-03-31T04:31:25;472.17;;;158.07;;
73331;SDS011;61560;33.718;73.040;2023-03-31T04:33:55;495.40;;;167.82;;
73331;SDS011;61560;33.718;73.040;2023-03-31T04:36:27;507.00;;;170.93;;
73331;SDS011;61560;33.718;73.040;2023-03-31T04:38:56;505.83;;;169.73;;
73331;SDS011;61560;33.718;73.040;2023-03-31T04:41:27;496.92;;;165.88;;
73331;SDS011;61560;33.718;73.040;2023-03-31T04:43:54;493.58;;;165.77;;
73331;SDS011;61560;33.718;73.040;2023-03-31T04:46:21;489.27;;;163.23;;
73331;SDS011;61560;33.718;73.040;2023-03-31T04:48:48;497.75;;;167.45;;
73331;SDS011;61560;33.718;73.040;2023-03-31T04:51:16;496.33;;;167.27;;
73331;SDS011;61560;33.718;73.040;2023-03-31T04:53:45;501.05;;;168.48;;
73331;SDS011;61560;33.718;73.040;2023-03-31T04:56:13;510.17;;;169.50;;
73331;SDS011;61560;33.718;73.040;2023-03-31T04:58:41;499.13;;;166.73;;
73331;SDS011;61560;33.718;73.040;2023-03-31T05:01:09;483.05;;;162.68;;
73331;SDS011;61560;33.718;73.040;2023-03-31T05:03:38;492.13;;;164.50;;
73331;SDS011;61560;33.718;73.040;2023-03-31T05:06:06;518.63;;;173.98;;
73331;SDS011;61560;33.718;73.040;2023-03-31T05:08:33;527.70;;;178.85;;
73331;SDS011;61560;33.718;73.040;2023-03-31T05:11:01;530.53;;;179.32;;
73331;SDS011;61560;33.718;73.040;2023-03-31T05:13:29;524.05;;;175.52;;
73331;SDS011;61560;33.718;73.040;2023-03-31T05:15:56;493.10;;;163.75;;
73331;SDS011;61560;33.718;73.040;2023-03-31T05:18:37;480.52;;;160.30;;
73331;SDS011;61560;33.718;73.040;2023-03-31T05:21:14;492.33;;;163.48;;
73331;SDS011;61560;33.718;73.040;2023-03-31T05:23:43;503.33;;;168.52;;
73331;SDS011;61560;33.718;73.040;2023-03-31T05:26:11;515.72;;;173.60;;
73331;SDS011;61560;33.718;73.040;2023-03-31T05:28:39;520.45;;;175.15;;
73331;SDS011;61560;33.718;73.040;2023-03-31T05:31:06;523.95;;;177.95;;
73331;SDS011;61560;33.718;73.040;2023-03-31T05:33:37;500.30;;;165.63;;
73331;SDS011;61560;33.718;73.040;2023-03-31T05:36:07;497.73;;;166.73;;
73331;SDS011;61560;33.718;73.040;2023-03-31T05:38:36;501.58;;;166.80;;
73331;SDS011;61560;33.718;73.040;2023-03-31T05:41:04;493.73;;;163.77;;
73331;SDS011;61560;33.718;73.040;2023-03-31T05:43:33;498.52;;;165.43;;
73331;SDS011;61560;33.718;73.040;2023-03-31T05:46:05;477.45;;;160.30;;
73331;SDS011;61560;33.718;73.040;2023-03-31T05:48:31;478.20;;;160.00;;
73331;SDS011;61560;33.718;73.040;2023-03-31T05:50:59;482.17;;;162.38;;
73331;SDS011;61560;33.718;73.040;2023-03-31T05:53:26;482.25;;;160.98;;
73331;SDS011;61560;33.718;73.040;2023-03-31T05:56:01;482.70;;;159.70;;
73331;SDS011;61560;33.718;73.040;2023-03-31T05:58:32;493.48;;;163.18;;
73331;SDS011;61560;33.718;73.040;2023-03-31T06:01:05;500.73;;;165.60;;
73331;SDS011;61560;33.718;73.040;2023-03-31T06:03:35;504.55;;;167.90;;
73331;SDS011;61560;33.718;73.040;2023-03-31T06:06:07;504.20;;;167.00;;
73331;SDS011;61560;33.718;73.040;2023-03-31T06:08:35;503.30;;;167.13;;
73331;SDS011;61560;33.718;73.040;2023-03-31T06:11:07;436.40;;;148.15;;
73331;SDS011;61560;33.718;73.040;2023-03-31T06:13:35;456.73;;;153.38;;
73331;SDS011;61560;33.718;73.040;2023-03-31T06:16:03;473.17;;;155.93;;
73331;SDS011;61560;33.718;73.040;2023-03-31T06:18:32;468.45;;;155.32;;
73331;SDS011;61560;33.718;73.040;2023-03-31T06:21:02;478.45;;;157.57;;
73331;SDS011;61560;33.718;73.040;2023-03-31T06:23:29;446.10;;;149.65;;
73331;SDS011;61560;33.718;73.040;2023-03-31T06:26:00;450.58;;;149.82;;
73331;SDS011;61560;33.718;73.040;2023-03-31T06:28:32;437.60;;;147.55;;
73331;SDS011;61560;33.718;73.040;2023-03-31T06:31:00;430.73;;;145.40;;
73331;SDS011;61560;33.718;73.040;2023-03-31T06:33:33;447.92;;;148.70;;
73331;SDS011;61560;33.718;73.040;2023-03-31T06:36:01;451.80;;;149.88;;
73331;SDS011;61560;33.718;73.040;2023-03-31T06:38:34;442.25;;;148.43;;
73331;SDS011;61560;33.718;73.040;2023-03-31T06:41:03;438.08;;;146.77;;
73331;SDS011;61560;33.718;73.040;2023-03-31T06:43:31;415.75;;;141.65;;
73331;SDS011;61560;33.718;73.040;2023-03-31T06:45:59;436.25;;;146.52;;
73331;SDS011;61560;33.718;73.040;2023-03-31T06:48:26;438.90;;;147.05;;
73331;SDS011;61560;33.718;73.040;2023-03-31T06:51:01;440.67;;;147.43;;
73331;SDS011;61560;33.718;73.040;2023-03-31T06:53:29;427.98;;;145.18;;
73331;SDS011;61560;33.718;73.040;2023-03-31T06:55:57;425.23;;;143.63;;
73331;SDS011;61560;33.718;73.040;2023-03-31T06:58:24;418.23;;;142.43;;
73331;SDS011;61560;33.718;73.040;2023-03-31T07:00:54;402.55;;;139.55;;
73331;SDS011;61560;33.718;73.040;2023-03-31T07:03:22;428.52;;;144.88;;
73331;SDS011;61560;33.718;73.040;2023-03-31T07:05:50;442.88;;;147.30;;
73331;SDS011;61560;33.718;73.040;2023-03-31T07:08:18;441.65;;;147.63;;
73331;SDS011;61560;33.718;73.040;2023-03-31T07:10:46;447.27;;;149.25;;
73331;SDS011;61560;33.718;73.040;2023-03-31T07:13:15;442.70;;;148.05;;
73331;SDS011;61560;33.718;73.040;2023-03-31T07:15:48;429.52;;;145.80;;
73331;SDS011;61560;33.718;73.040;2023-03-31T07:18:16;435.08;;;147.50;;
73331;SDS011;61560;33.718;73.040;2023-03-31T07:20:46;424.23;;;143.95;;
73331;SDS011;61560;33.718;73.040;2023-03-31T07:23:15;418.45;;;142.90;;
73331;SDS011;61560;33.718;73.040;2023-03-31T07:25:43;413.27;;;142.63;;
73331;SDS011;61560;33.718;73.040;2023-03-31T07:28:12;413.17;;;142.25;;
73331;SDS011;61560;33.718;73.040;2023-03-31T07:30:39;418.35;;;142.93;;
73331;SDS011;61560;33.718;73.040;2023-03-31T07:33:07;420.63;;;143.60;;
73331;SDS011;61560;33.718;73.040;2023-03-31T07:35:36;418.30;;;142.50;;
73331;SDS011;61560;33.718;73.040;2023-03-31T07:38:08;436.17;;;149.10;;
73331;SDS011;61560;33.718;73.040;2023-03-31T07:40:37;425.90;;;145.25;;
73331;SDS011;61560;33.718;73.040;2023-03-31T07:43:07;453.02;;;150.52;;
73331;SDS011;61560;33.718;73.040;2023-03-31T07:45:34;452.02;;;150.63;;
73331;SDS011;61560;33.718;73.040;2023-03-31T07:48:02;451.73;;;150.65;;
73331;SDS011;61560;33.718;73.040;2023-03-31T07:50:29;466.52;;;153.52;;
73331;SDS011;61560;33.718;73.040;2023-03-31T07:52:58;471.75;;;154.05;;
73331;SDS011;61560;33.718;73.040;2023-03-31T07:55:25;479.10;;;157.63;;
73331;SDS011;61560;33.718;73.040;2023-03-31T07:57:52;486.23;;;158.88;;
73331;SDS011;61560;33.718;73.040;2023-03-31T08:00:19;485.67;;;158.43;;
73331;SDS011;61560;33.718;73.040;2023-03-31T08:02:47;489.95;;;160.10;;
73331;SDS011;61560;33.718;73.040;2023-03-31T08:05:15;484.33;;;157.90;;
73331;SDS011;61560;33.718;73.040;2023-03-31T08:07:45;493.67;;;161.25;;
73331;SDS011;61560;33.718;73.040;2023-03-31T08:10:18;491.08;;;160.13;;
73331;SDS011;61560;33.718;73.040;2023-03-31T08:12:47;491.55;;;160.95;;
73331;SDS011;61560;33.718;73.040;2023-03-31T08:15:14;500.35;;;162.70;;
73331;SDS011;61560;33.718;73.040;2023-03-31T08:17:41;509.55;;;166.02;;
73331;SDS011;61560;33.718;73.040;2023-03-31T08:20:08;562.25;;;185.90;;
73331;SDS011;61560;33.718;73.040;2023-03-31T08:22:36;561.40;;;186.45;;
73331;SDS011;61560;33.718;73.040;2023-03-31T08:25:05;559.20;;;184.50;;
73331;SDS011;61560;33.718;73.040;2023-03-31T08:27:42;559.63;;;185.43;;
73331;SDS011;61560;33.718;73.040;2023-03-31T08:30:09;552.58;;;183.02;;
73331;SDS011;61560;33.718;73.040;2023-03-31T08:32:37;524.60;;;172.30;;
73331;SDS011;61560;33.718;73.040;2023-03-31T08:35:05;558.75;;;184.90;;
73331;SDS011;61560;33.718;73.040;2023-03-31T08:37:33;555.10;;;183.10;;
73331;SDS011;61560;33.718;73.040;2023-03-31T08:40:00;563.30;;;186.98;;
73331;SDS011;61560;33.718;73.040;2023-03-31T08:42:34;566.35;;;189.20;;
73331;SDS011;61560;33.718;73.040;2023-03-31T08:47:29;572.63;;;192.15;;
73331;SDS011;61560;33.718;73.040;2023-03-31T08:50:03;569.53;;;190.23;;
73331;SDS011;61560;33.718;73.040;2023-03-31T08:52:41;562.97;;;188.43;;
73331;SDS011;61560;33.718;73.040;2023-03-31T09:00:16;564.50;;;189.10;;
73331;SDS011;61560;33.718;73.040;2023-03-31T09:08:24;7.90;;;4.65;;
73331;SDS011;61560;33.718;73.040;2023-03-31T09:16:58;9.73;;;4.28;;
73331;SDS011;61560;33.718;73.040;2023-03-31T09:19:40;9.10;;;4.40;;
73331;SDS011;61560;33.718;73.040;2023-03-31T09:22:21;8.02;;;4.22;;
73331;SDS011;61560;33.718;73.040;2023-03-31T09:27:26;8.02;;;3.85;;
73331;SDS011;61560;33.718;73.040;2023-03-31T09:30:02;9.93;;;4.38;;
73331;SDS011;61560;33.718;73.040;2023-03-31T09:32:45;9.48;;;3.85;;
73331;SDS011;61560;33.718;73.040;2023-03-31T09:35:17;8.30;;;4.07;;
73331;SDS011;61560;33.718;73.040;2023-03-31T09:37:50;5.40;;;3.67;;
73331;SDS011;61560;33.718;73.040;2023-03-31T09:40:19;7.82;;;4.18;;
73331;SDS011;61560;33.718;73.040;2023-03-31T09:42:56;5.80;;;3.88;;
73331;SDS011;61560;33.718;73.040;2023-03-31T09:45:27;6.72;;;3.40;;
73331;SDS011;61560;33.718;73.040;2023-03-31T09:48:11;7.43;;;3.55;;
73331;SDS011;61560;33.718;73.040;2023-03-31T09:50:49;9.80;;;3.97;;
73331;SDS011;61560;33.718;73.040;2023-03-31T09:53:31;6.05;;;3.80;;
73331;SDS011;61560;33.718;73.040;2023-03-31T09:59:12;5.22;;;3.10;;
73331;SDS011;61560;33.718;73.040;2023-03-31T10:01:45;6.97;;;3.90;;
73331;SDS011;61560;33.718;73.040;2023-03-31T10:04:17;6.43;;;3.83;;
73331;SDS011;61560;33.718;73.040;2023-03-31T10:06:51;6.55;;;3.63;;
73331;SDS011;61560;33.718;73.040;2023-03-31T10:09:20;7.80;;;4.03;;
73331;SDS011;61560;33.718;73.040;2023-03-31T10:11:56;7.57;;;4.40;;
73331;SDS011;61560;33.718;73.040;2023-03-31T10:17:10;8.00;;;3.58;;
73331;SDS011;61560;33.718;73.040;2023-03-31T10:19:51;6.22;;;3.50;;
73331;SDS011;61560;33.718;73.040;2023-03-31T10:24:49;6.80;;;3.55;;
73331;SDS011;61560;33.718;73.040;2023-03-31T10:27:22;7.13;;;3.92;;
73331;SDS011;61560;33.718;73.040;2023-03-31T10:29:51;5.45;;;3.40;;
73331;SDS011;61560;33.718;73.040;2023-03-31T10:32:40;4.80;;;2.83;;
73331;SDS011;61560;33.718;73.040;2023-03-31T10:38:44;5.30;;;2.88;;
73331;SDS011;61560;33.718;73.040;2023-03-31T10:41:19;7.45;;;2.90;;
73331;SDS011;61560;33.718;73.040;2023-03-31T10:44:22;8.63;;;3.00;;
73331;SDS011;61560;33.718;73.040;2023-03-31T10:49:42;9.52;;;2.90;;
73331;SDS011;61560;33.718;73.040;2023-03-31T10:52:20;6.20;;;3.20;;
73331;SDS011;61560;33.718;73.040;2023-03-31T10:54:54;8.23;;;3.05;;
73331;SDS011;61560;33.718;73.040;2023-03-31T10:58:09;5.40;;;2.95;;
73331;SDS011;61560;33.718;73.040;2023-03-31T11:03:19;4.70;;;3.35;;
73331;SDS011;61560;33.718;73.040;2023-03-31T11:06:00;6.55;;;3.70;;
73331;SDS011;61560;33.718;73.040;2023-03-31T11:08:49;7.90;;;3.42;;
73331;SDS011;61560;33.718;73.040;2023-03-31T11:11:42;7.97;;;3.75;;
73331;SDS011;61560;33.718;73.040;2023-03-31T11:14:39;4.82;;;3.20;;
73331;SDS011;61560;33.718;73.040;2023-03-31T11:17:35;3.78;;;2.70;;
73331;SDS011;61560;33.718;73.040;2023-03-31T11:20:27;5.10;;;3.10;;
73331;SDS011;61560;33.718;73.040;2023-03-31T11:32:39;4.07;;;2.92;;
73331;SDS011;61560;33.718;73.040;2023-03-31T11:40:27;4.78;;;2.90;;
73331;SDS011;61560;33.718;73.040;2023-03-31T11:43:11;6.57;;;3.33;;
73331;SDS011;61560;33.718;73.040;2023-03-31T11:45:52;5.55;;;3.38;;
73331;SDS011;61560;33.718;73.040;2023-03-31T11:49:05;5.40;;;2.83;;
73331;SDS011;61560;33.718;73.040;2023-03-31T11:54:36;8.98;;;3.85;;
73331;SDS011;61560;33.718;73.040;2023-03-31T11:57:13;11.38;;;4.47;;
73331;SDS011;61560;33.718;73.040;2023-03-31T11:59:54;16.95;;;5.07;;
73331;SDS011;61560;33.718;73.040;2023-03-31T12:05:20;13.57;;;5.10;;
73331;SDS011;61560;33.718;73.040;2023-03-31T12:14:20;10.38;;;5.80;;
73331;SDS011;61560;33.718;73.040;2023-03-31T12:17:08;10.05;;;6.13;;
73331;SDS011;61560;33.718;73.040;2023-03-31T12:19:47;12.63;;;6.25;;
73331;SDS011;61560;33.718;73.040;2023-03-31T12:24:53;12.70;;;6.50;;
73331;SDS011;61560;33.718;73.040;2023-03-31T12:29:56;29.27;;;13.32;;
73331;SDS011;61560;33.718;73.040;2023-03-31T12:32:31;19.02;;;8.20;;
73331;SDS011;61560;33.718;73.040;2023-03-31T12:35:03;23.70;;;9.90;;
73331;SDS011;61560;33.718;73.040;2023-03-31T12:43:17;12.85;;;7.43;;
73331;SDS011;61560;33.718;73.040;2023-03-31T12:51:36;15.77;;;7.93;;
73331;SDS011;61560;33.718;73.040;2023-03-31T12:57:18;14.95;;;7.47;;
73331;SDS011;61560;33.718;73.040;2023-03-31T13:02:38;8.32;;;5.32;;
73331;SDS011;61560;33.718;73.040;2023-03-31T13:08:04;10.55;;;5.40;;
73331;SDS011;61560;33.718;73.040;2023-03-31T13:13:39;8.68;;;5.32;;
73331;SDS011;61560;33.718;73.040;2023-03-31T13:16:12;12.65;;;5.50;;
73331;SDS011;61560;33.718;73.040;2023-03-31T13:18:55;9.85;;;4.93;;
73331;SDS011;61560;33.718;73.040;2023-03-31T13:21:23;6.40;;;4.22;;
73331;SDS011;61560;33.718;73.040;2023-03-31T13:23:52;6.35;;;4.10;;
73331;SDS011;61560;33.718;73.040;2023-03-31T13:29:17;5.60;;;3.38;;
73331;SDS011;61560;33.718;73.040;2023-03-31T13:34:28;6.15;;;3.67;;
73331;SDS011;61560;33.718;73.040;2023-03-31T13:37:21;6.43;;;3.25;;
73331;SDS011;61560;33.718;73.040;2023-03-31T13:48:19;9.05;;;4.40;;
73331;SDS011;61560;33.718;73.040;2023-03-31T13:53:56;6.95;;;4.38;;
73331;SDS011;61560;33.718;73.040;2023-03-31T14:11:24;8.10;;;4.65;;
73331;SDS011;61560;33.718;73.040;2023-03-31T14:14:06;7.50;;;4.55;;
73331;SDS011;61560;33.718;73.040;2023-03-31T14:16:49;9.93;;;5.55;;
73331;SDS011;61560;33.718;73.040;2023-03-31T14:22:45;10.00;;;6.25;;
73331;SDS011;61560;33.718;73.040;2023-03-31T14:27:59;9.07;;;5.20;;
73331;SDS011;61560;33.718;73.040;2023-03-31T14:35:40;7.65;;;4.75;;
73331;SDS011;61560;33.718;73.040;2023-03-31T14:38:18;8.57;;;4.13;;
73331;SDS011;61560;33.718;73.040;2023-03-31T14:40:48;9.82;;;4.47;;
73331;SDS011;61560;33.718;73.040;2023-03-31T14:43:26;7.38;;;4.82;;
73331;SDS011;61560;33.718;73.040;2023-03-31T14:46:08;8.98;;;4.90;;
73331;SDS011;61560;33.718;73.040;2023-03-31T14:48:53;9.05;;;4.03;;
73331;SDS011;61560;33.718;73.040;2023-03-31T14:51:25;8.93;;;4.20;;
73331;SDS011;61560;33.718;73.040;2023-03-31T14:53:59;9.68;;;4.13;;
73331;SDS011;61560;33.718;73.040;2023-03-31T14:56:30;8.32;;;4.03;;
73331;SDS011;61560;33.718;73.040;2023-03-31T14:59:12;7.55;;;4.28;;
73331;SDS011;61560;33.718;73.040;2023-03-31T15:01:47;9.27;;;3.97;;
73331;SDS011;61560;33.718;73.040;2023-03-31T15:04:17;5.70;;;3.53;;
73331;SDS011;61560;33.718;73.040;2023-03-31T15:06:52;8.50;;;3.72;;
73331;SDS011;61560;33.718;73.040;2023-03-31T15:09:27;7.63;;;4.55;;
73331;SDS011;61560;33.718;73.040;2023-03-31T15:12:00;9.07;;;4.75;;
73331;SDS011;61560;33.718;73.040;2023-03-31T15:14:32;7.63;;;4.15;;
73331;SDS011;61560;33.718;73.040;2023-03-31T15:17:25;9.82;;;4.93;;
73331;SDS011;61560;33.718;73.040;2023-03-31T15:19:56;8.38;;;4.65;;
73331;SDS011;61560;33.718;73.040;2023-03-31T15:22:30;8.45;;;4.03;;
73331;SDS011;61560;33.718;73.040;2023-03-31T15:24:58;8.80;;;4.50;;
73331;SDS011;61560;33.718;73.040;2023-03-31T15:27:33;6.95;;;4.22;;
73331;SDS011;61560;33.718;73.040;2023-03-31T15:30:05;8.60;;;4.15;;
73331;SDS011;61560;33.718;73.040;2023-03-31T15:32:44;8.57;;;4.00;;
73331;SDS011;61560;33.718;73.040;2023-03-31T15:35:21;7.82;;;4.28;;
73331;SDS011;61560;33.718;73.040;2023-03-31T15:38:04;7.05;;;3.85;;
73331;SDS011;61560;33.718;73.040;2023-03-31T15:40:36;9.60;;;4.18;;
73331;SDS011;61560;33.718;73.040;2023-03-31T15:46:07;7.97;;;4.53;;
73331;SDS011;61560;33.718;73.040;2023-03-31T15:48:37;10.82;;;5.10;;
73331;SDS011;61560;33.718;73.040;2023-03-31T15:51:25;8.80;;;4.53;;
73331;SDS011;61560;33.718;73.040;2023-03-31T15:54:50;8.38;;;4.38;;
73331;SDS011;61560;33.718;73.040;2023-03-31T15:57:04;12.57;;;5.45;;
73331;SDS011;61560;33.718;73.040;2023-03-31T15:59:43;10.23;;;5.07;;
73331;SDS011;61560;33.718;73.040;2023-03-31T16:02:18;16.75;;;5.38;;
73331;SDS011;61560;33.718;73.040;2023-03-31T16:07:24;11.13;;;5.15;;
73331;SDS011;61560;33.718;73.040;2023-03-31T16:10:06;9.18;;;4.90;;
73331;SDS011;61560;33.718;73.040;2023-03-31T16:12:53;9.75;;;4.53;;
73331;SDS011;61560;33.718;73.040;2023-03-31T16:15:32;10.23;;;5.60;;
73331;SDS011;61560;33.718;73.040;2023-03-31T16:18:11;8.55;;;5.20;;
73331;SDS011;61560;33.718;73.040;2023-03-31T16:20:43;12.27;;;6.32;;
73331;SDS011;61560;33.718;73.040;2023-03-31T16:23:22;9.13;;;5.13;;
73331;SDS011;61560;33.718;73.040;2023-03-31T16:25:57;11.10;;;5.90;;
73331;SDS011;61560;33.718;73.040;2023-03-31T16:28:27;9.57;;;5.22;;
73331;SDS011;61560;33.718;73.040;2023-03-31T16:33:27;9.32;;;5.13;;
73331;SDS011;61560;33.718;73.040;2023-03-31T16:35:58;10.17;;;5.47;;
73331;SDS011;61560;33.718;73.040;2023-03-31T16:38:28;15.45;;;7.00;;
73331;SDS011;61560;33.718;73.040;2023-03-31T16:41:01;10.80;;;6.07;;
73331;SDS011;61560;33.718;73.040;2023-03-31T16:43:32;8.77;;;5.45;;
73331;SDS011;61560;33.718;73.040;2023-03-31T16:46:00;9.18;;;5.43;;
73331;SDS011;61560;33.718;73.040;2023-03-31T16:48:31;12.40;;;5.60;;
73331;SDS011;61560;33.718;73.040;2023-03-31T16:50:59;9.50;;;5.30;;
73331;SDS011;61560;33.718;73.040;2023-03-31T16:53:29;12.45;;;4.85;;
73331;SDS011;61560;33.718;73.040;2023-03-31T16:55:59;12.27;;;5.47;;
73331;SDS011;61560;33.718;73.040;2023-03-31T16:58:27;10.13;;;4.97;;
73331;SDS011;61560;33.718;73.040;2023-03-31T17:00:56;12.00;;;5.05;;
73331;SDS011;61560;33.718;73.040;2023-03-31T17:03:24;15.10;;;5.95;;
73331;SDS011;61560;33.718;73.040;2023-03-31T17:05:54;16.08;;;5.63;;
73331;SDS011;61560;33.718;73.040;2023-03-31T17:08:24;16.88;;;6.20;;
73331;SDS011;61560;33.718;73.040;2023-03-31T17:10:54;13.52;;;5.78;;
73331;SDS011;61560;33.718;73.040;2023-03-31T17:13:31;11.63;;;5.38;;
73331;SDS011;61560;33.718;73.040;2023-03-31T17:15:59;10.15;;;5.05;;
73331;SDS011;61560;33.718;73.040;2023-03-31T17:18:28;8.32;;;4.90;;
73331;SDS011;61560;33.718;73.040;2023-03-31T17:21:01;8.88;;;4.53;;
73331;SDS011;61560;33.718;73.040;2023-03-31T17:23:40;9.73;;;5.38;;
73331;SDS011;61560;33.718;73.040;2023-03-31T17:26:08;11.63;;;5.30;;
73331;SDS011;61560;33.718;73.040;2023-03-31T17:28:38;9.93;;;4.85;;
73331;SDS011;61560;33.718;73.040;2023-03-31T17:31:12;10.27;;;5.00;;
73331;SDS011;61560;33.718;73.040;2023-03-31T17:33:41;9.07;;;5.20;;
73331;SDS011;61560;33.718;73.040;2023-03-31T17:36:09;10.93;;;5.35;;
73331;SDS011;61560;33.718;73.040;2023-03-31T17:38:37;11.05;;;4.97;;
73331;SDS011;61560;33.718;73.040;2023-03-31T17:41:06;8.82;;;4.95;;
73331;SDS011;61560;33.718;73.040;2023-03-31T17:43:36;10.40;;;5.70;;